sensor_id;sensor_type;location;lat;lon;timestamp;temperature;humidity
55711;DHT22;41612;51.994;5.880;2023-04-19T15:42:15;35.20;19.20
55711;DHT22;41612;51.994;5.880;2023-04-19T15:44:41;34.70;22.00
55711;DHT22;41612;51.994;5.880;2023-04-19T15:47:07;34.60;19.50
55711;DHT22;41612;51.994;5.880;2023-04-19T15:49:32;34.40;19.60
55711;DHT22;41612;51.994;5.880;2023-04-19T15:51:58;34.50;22.60
55711;DHT22;41612;51.994;5.880;2023-04-19T15:54:25;34.30;22.40
55711;DHT22;41612;51.994;5.880;2023-04-19T15:56:51;33.80;20.80
55711;DHT22;41612;51.994;5.880;2023-04-19T15:59:16;33.50;23.20
55711;DHT22;41612;51.994;5.880;2023-04-19T16:01:42;33.50;23.30
55711;DHT22;41612;51.994;5.880;2023-04-19T16:04:10;33.50;22.80
55711;DHT22;41612;51.994;5.880;2023-04-19T16:06:36;33.20;19.50
55711;DHT22;41612;51.994;5.880;2023-04-19T16:09:02;32.90;23.30
55711;DHT22;41612;51.994;5.880;2023-04-19T16:11:28;32.70;24.80
55711;DHT22;41612;51.994;5.880;2023-04-19T16:13:54;32.70;24.20
55711;DHT22;41612;51.994;5.880;2023-04-19T16:16:19;32.60;24.30
55711;DHT22;41612;51.994;5.880;2023-04-19T16:18:45;31.80;25.20
55711;DHT22;41612;51.994;5.880;2023-04-19T16:21:14;30.50;25.10
55711;DHT22;41612;51.994;5.880;2023-04-19T16:23:42;28.50;27.40
55711;DHT22;41612;51.994;5.880;2023-04-19T16:26:08;26.60;29.40
55711;DHT22;41612;51.994;5.880;2023-04-19T16:28:34;25.20;34.50
55711;DHT22;41612;51.994;5.880;2023-04-19T16:31:00;23.90;36.60
55711;DHT22;41612;51.994;5.880;2023-04-19T16:33:25;23.00;37.00
55711;DHT22;41612;51.994;5.880;2023-04-19T16:35:51;22.20;39.90
55711;DHT22;41612;51.994;5.880;2023-04-19T16:38:17;21.70;36.30
55711;DHT22;41612;51.994;5.880;2023-04-19T16:40:43;21.10;37.60
55711;DHT22;41612;51.994;5.880;2023-04-19T16:43:12;20.70;43.50
55711;DHT22;41612;51.994;5.880;2023-04-19T16:45:37;20.40;43.10
55711;DHT22;41612;51.994;5.880;2023-04-19T16:48:03;20.20;39.70
55711;DHT22;41612;51.994;5.880;2023-04-19T16:50:29;19.90;40.20
55711;DHT22;41612;51.994;5.880;2023-04-19T16:52:54;19.80;45.90
55711;DHT22;41612;51.994;5.880;2023-04-19T16:55:20;19.80;46.90
55711;DHT22;41612;51.994;5.880;2023-04-19T16:57:46;19.70;43.10
55711;DHT22;41612;51.994;5.880;2023-04-19T17:00:12;19.60;47.70
55711;DHT22;41612;51.994;5.880;2023-04-19T17:02:41;19.50;47.00
55711;DHT22;41612;51.994;5.880;2023-04-19T17:05:07;19.40;48.10
55711;DHT22;41612;51.994;5.880;2023-04-19T17:07:32;19.20;43.30
55711;DHT22;41612;51.994;5.880;2023-04-19T17:09:58;19.10;43.80
55711;DHT22;41612;51.994;5.880;2023-04-19T17:12:24;18.90;49.00
55711;DHT22;41612;51.994;5.880;2023-04-19T17:14:52;18.80;44.80
55711;DHT22;41612;51.994;5.880;2023-04-19T17:17:18;18.70;44.80
55711;DHT22;41612;51.994;5.880;2023-04-19T17:19:44;18.60;49.70
55711;DHT22;41612;51.994;5.880;2023-04-19T17:22:10;18.50;50.40
55711;DHT22;41612;51.994;5.880;2023-04-19T17:24:35;18.40;49.70
55711;DHT22;41612;51.994;5.880;2023-04-19T17:27:01;18.40;50.80
55711;DHT22;41612;51.994;5.880;2023-04-19T17:29:27;18.20;47.10
55711;DHT22;41612;51.994;5.880;2023-04-19T17:31:53;18.10;47.70
55711;DHT22;41612;51.994;5.880;2023-04-19T17:34:18;18.00;51.30
55711;DHT22;41612;51.994;5.880;2023-04-19T17:36:44;17.90;46.70
55711;DHT22;41612;51.994;5.880;2023-04-19T17:39:10;17.90;51.30
55711;DHT22;41612;51.994;5.880;2023-04-19T17:41:36;17.70;45.70
55711;DHT22;41612;51.994;5.880;2023-04-19T17:44:02;17.70;52.20
55711;DHT22;41612;51.994;5.880;2023-04-19T17:46:27;17.50;50.20
55711;DHT22;41612;51.994;5.880;2023-04-19T17:48:53;17.50;48.50
55711;DHT22;41612;51.994;5.880;2023-04-19T17:51:19;17.40;50.00
55711;DHT22;41612;51.994;5.880;2023-04-19T17:53:46;17.40;51.90
55711;DHT22;41612;51.994;5.880;2023-04-19T17:56:11;17.40;48.60
55711;DHT22;41612;51.994;5.880;2023-04-19T17:58:37;17.30;47.10
55711;DHT22;41612;51.994;5.880;2023-04-19T18:01:03;17.20;52.90
55711;DHT22;41612;51.994;5.880;2023-04-19T18:03:30;17.10;52.80
55711;DHT22;41612;51.994;5.880;2023-04-19T18:05:57;17.10;53.60
55711;DHT22;41612;51.994;5.880;2023-04-19T18:08:23;17.00;51.10
55711;DHT22;41612;51.994;5.880;2023-04-19T18:10:49;16.90;46.10
55711;DHT22;41612;51.994;5.880;2023-04-19T18:13:15;16.80;54.10
55711;DHT22;41612;51.994;5.880;2023-04-19T18:15:41;16.70;53.40
55711;DHT22;41612;51.994;5.880;2023-04-19T18:18:07;16.70;52.80
55711;DHT22;41612;51.994;5.880;2023-04-19T18:20:33;16.60;52.00
55711;DHT22;41612;51.994;5.880;2023-04-19T18:22:58;16.60;54.80
55711;DHT22;41612;51.994;5.880;2023-04-19T18:25:26;16.50;54.70
55711;DHT22;41612;51.994;5.880;2023-04-19T18:27:53;16.50;55.10
55711;DHT22;41612;51.994;5.880;2023-04-19T18:30:20;16.30;51.30
55711;DHT22;41612;51.994;5.880;2023-04-19T18:32:46;16.20;53.80
55711;DHT22;41612;51.994;5.880;2023-04-19T18:35:11;16.20;54.80
55711;DHT22;41612;51.994;5.880;2023-04-19T18:37:38;16.20;53.30
55711;DHT22;41612;51.994;5.880;2023-04-19T18:40:04;16.10;55.00
55711;DHT22;41612;51.994;5.880;2023-04-19T18:42:31;16.00;54.50
55711;DHT22;41612;51.994;5.880;2023-04-19T18:45:05;15.90;57.30
55711;DHT22;41612;51.994;5.880;2023-04-19T18:47:31;15.90;58.20
55711;DHT22;41612;51.994;5.880;2023-04-19T18:49:57;15.90;55.90
55711;DHT22;41612;51.994;5.880;2023-04-19T18:52:23;15.80;52.10
55711;DHT22;41612;51.994;5.880;2023-04-19T18:54:52;15.70;56.60
55711;DHT22;41612;51.994;5.880;2023-04-19T18:57:27;15.60;57.20
55711;DHT22;41612;51.994;5.880;2023-04-19T18:59:54;15.50;57.20
55711;DHT22;41612;51.994;5.880;2023-04-19T19:02:30;15.40;56.80
55711;DHT22;41612;51.994;5.880;2023-04-19T19:05:03;15.40;57.50
55711;DHT22;41612;51.994;5.880;2023-04-19T19:07:32;15.40;57.20
55711;DHT22;41612;51.994;5.880;2023-04-19T19:10:08;15.30;58.60
55711;DHT22;41612;51.994;5.880;2023-04-19T19:12:45;15.20;56.20
55711;DHT22;41612;51.994;5.880;2023-04-19T19:15:12;15.10;52.90
55711;DHT22;41612;51.994;5.880;2023-04-19T19:17:40;15.10;58.00
55711;DHT22;41612;51.994;5.880;2023-04-19T19:20:10;15.00;54.70
55711;DHT22;41612;51.994;5.880;2023-04-19T19:22:36;14.90;57.90
55711;DHT22;41612;51.994;5.880;2023-04-19T19:25:02;14.80;58.90
55711;DHT22;41612;51.994;5.880;2023-04-19T19:27:30;14.80;59.80
55711;DHT22;41612;51.994;5.880;2023-04-19T19:29:56;14.70;54.50
55711;DHT22;41612;51.994;5.880;2023-04-19T19:32:23;14.60;54.90
55711;DHT22;41612;51.994;5.880;2023-04-19T19:34:49;14.50;58.40
55711;DHT22;41612;51.994;5.880;2023-04-19T19:37:17;14.50;58.40
55711;DHT22;41612;51.994;5.880;2023-04-19T19:39:43;14.30;50.90
55711;DHT22;41612;51.994;5.880;2023-04-19T19:42:10;14.20;58.30
55711;DHT22;41612;51.994;5.880;2023-04-19T19:44:37;14.20;58.70
55711;DHT22;41612;51.994;5.880;2023-04-19T19:47:03;14.20;60.10
55711;DHT22;41612;51.994;5.880;2023-04-19T19:49:29;14.20;56.00
55711;DHT22;41612;51.994;5.880;2023-04-19T19:51:55;14.00;57.30
55711;DHT22;41612;51.994;5.880;2023-04-19T19:54:20;14.00;57.90
55711;DHT22;41612;51.994;5.880;2023-04-19T19:56:46;13.90;58.70
55711;DHT22;41612;51.994;5.880;2023-04-19T19:59:14;13.80;60.90
55711;DHT22;41612;51.994;5.880;2023-04-19T20:01:40;13.80;57.30
55711;DHT22;41612;51.994;5.880;2023-04-19T20:07:27;13.80;58.00
55711;DHT22;41612;51.994;5.880;2023-04-19T20:09:53;13.70;61.00
55711;DHT22;41612;51.994;5.880;2023-04-19T20:12:18;13.70;61.00
55711;DHT22;41612;51.994;5.880;2023-04-19T20:14:44;13.70;61.90
55711;DHT22;41612;51.994;5.880;2023-04-19T20:17:10;13.60;60.60
55711;DHT22;41612;51.994;5.880;2023-04-19T20:19:35;13.50;57.80
55711;DHT22;41612;51.994;5.880;2023-04-19T20:22:02;13.50;58.50
55711;DHT22;41612;51.994;5.880;2023-04-19T20:24:27;13.30;60.10
55711;DHT22;41612;51.994;5.880;2023-04-19T20:26:54;13.30;59.60
55711;DHT22;41612;51.994;5.880;2023-04-19T20:29:19;13.30;60.70
55711;DHT22;41612;51.994;5.880;2023-04-19T20:31:45;13.20;58.10
55711;DHT22;41612;51.994;5.880;2023-04-19T20:34:11;13.20;60.80
55711;DHT22;41612;51.994;5.880;2023-04-19T20:36:37;13.10;55.30
55711;DHT22;41612;51.994;5.880;2023-04-19T20:39:02;13.00;59.50
55711;DHT22;41612;51.994;5.880;2023-04-19T20:41:34;13.00;59.50
55711;DHT22;41612;51.994;5.880;2023-04-19T20:44:00;13.00;62.70
55711;DHT22;41612;51.994;5.880;2023-04-19T20:46:26;12.90;63.10
55711;DHT22;41612;51.994;5.880;2023-04-19T20:48:52;12.90;62.30
55711;DHT22;41612;51.994;5.880;2023-04-19T20:51:17;12.80;61.90
55711;DHT22;41612;51.994;5.880;2023-04-19T20:53:43;12.80;61.40
55711;DHT22;41612;51.994;5.880;2023-04-19T20:56:09;12.80;63.00
55711;DHT22;41612;51.994;5.880;2023-04-19T20:58:34;12.70;59.00
55711;DHT22;41612;51.994;5.880;2023-04-19T21:01:02;12.60;62.00
55711;DHT22;41612;51.994;5.880;2023-04-19T21:03:27;12.50;57.20
55711;DHT22;41612;51.994;5.880;2023-04-19T21:05:53;12.40;59.20
55711;DHT22;41612;51.994;5.880;2023-04-19T21:08:21;12.50;64.00
55711;DHT22;41612;51.994;5.880;2023-04-19T21:10:47;12.40;62.80
55711;DHT22;41612;51.994;5.880;2023-04-19T21:13:13;12.40;64.20
55711;DHT22;41612;51.994;5.880;2023-04-19T21:15:38;12.30;64.00
55711;DHT22;41612;51.994;5.880;2023-04-19T21:18:04;12.30;62.20
55711;DHT22;41612;51.994;5.880;2023-04-19T21:20:30;12.20;63.70
55711;DHT22;41612;51.994;5.880;2023-04-19T21:22:55;12.20;61.30
55711;DHT22;41612;51.994;5.880;2023-04-19T21:25:21;12.20;64.30
55711;DHT22;41612;51.994;5.880;2023-04-19T21:27:47;12.20;64.70
55711;DHT22;41612;51.994;5.880;2023-04-19T21:30:13;12.10;63.80
55711;DHT22;41612;51.994;5.880;2023-04-19T21:32:39;12.00;62.80
55711;DHT22;41612;51.994;5.880;2023-04-19T21:35:05;12.10;64.50
55711;DHT22;41612;51.994;5.880;2023-04-19T21:37:31;12.00;64.70
55711;DHT22;41612;51.994;5.880;2023-04-19T21:39:57;12.00;65.20
55711;DHT22;41612;51.994;5.880;2023-04-19T21:42:23;12.00;64.90
55711;DHT22;41612;51.994;5.880;2023-04-19T21:44:48;11.90;65.10
55711;DHT22;41612;51.994;5.880;2023-04-19T21:47:14;11.90;65.50
55711;DHT22;41612;51.994;5.880;2023-04-19T21:49:40;11.90;63.30
55711;DHT22;41612;51.994;5.880;2023-04-19T21:52:06;11.90;64.80
55711;DHT22;41612;51.994;5.880;2023-04-19T21:54:32;11.80;64.70
55711;DHT22;41612;51.994;5.880;2023-04-19T21:56:59;11.80;65.80
55711;DHT22;41612;51.994;5.880;2023-04-19T21:59:25;11.80;65.90
55711;DHT22;41612;51.994;5.880;2023-04-19T22:01:50;11.70;62.70
55711;DHT22;41612;51.994;5.880;2023-04-19T22:04:17;11.60;61.10
55711;DHT22;41612;51.994;5.880;2023-04-19T22:06:43;11.60;64.50
55711;DHT22;41612;51.994;5.880;2023-04-19T22:09:12;11.50;65.60
55711;DHT22;41612;51.994;5.880;2023-04-19T22:11:38;11.50;65.70
55711;DHT22;41612;51.994;5.880;2023-04-19T22:14:04;11.50;66.20
55711;DHT22;41612;51.994;5.880;2023-04-19T22:16:29;11.50;65.90
55711;DHT22;41612;51.994;5.880;2023-04-19T22:18:58;11.40;64.40
55711;DHT22;41612;51.994;5.880;2023-04-19T22:21:24;11.40;65.70
55711;DHT22;41612;51.994;5.880;2023-04-19T22:23:51;11.30;65.10
55711;DHT22;41612;51.994;5.880;2023-04-19T22:26:18;11.20;62.70
55711;DHT22;41612;51.994;5.880;2023-04-19T22:28:43;11.20;65.70
55711;DHT22;41612;51.994;5.880;2023-04-19T22:31:09;11.20;64.90
55711;DHT22;41612;51.994;5.880;2023-04-19T22:33:35;11.10;63.70
55711;DHT22;41612;51.994;5.880;2023-04-19T22:36:01;11.10;65.60
55711;DHT22;41612;51.994;5.880;2023-04-19T22:38:26;11.00;65.80
55711;DHT22;41612;51.994;5.880;2023-04-19T22:40:52;10.90;62.30
55711;DHT22;41612;51.994;5.880;2023-04-19T22:43:19;10.90;65.50
55711;DHT22;41612;51.994;5.880;2023-04-19T22:45:45;10.90;65.30
55711;DHT22;41612;51.994;5.880;2023-04-19T22:48:15;10.90;65.00
55711;DHT22;41612;51.994;5.880;2023-04-19T22:50:45;10.90;64.90
55711;DHT22;41612;51.994;5.880;2023-04-19T22:53:11;10.90;64.10
55711;DHT22;41612;51.994;5.880;2023-04-19T22:55:41;10.80;64.90
55711;DHT22;41612;51.994;5.880;2023-04-19T22:58:08;10.80;65.40
55711;DHT22;41612;51.994;5.880;2023-04-19T23:00:37;10.80;65.30
55711;DHT22;41612;51.994;5.880;2023-04-19T23:03:03;10.80;65.50
55711;DHT22;41612;51.994;5.880;2023-04-19T23:05:29;10.70;65.60
55711;DHT22;41612;51.994;5.880;2023-04-19T23:07:56;10.70;65.60
55711;DHT22;41612;51.994;5.880;2023-04-19T23:10:24;10.70;65.50
55711;DHT22;41612;51.994;5.880;2023-04-19T23:12:51;10.70;65.50
55711;DHT22;41612;51.994;5.880;2023-04-19T23:15:19;10.70;65.30
55711;DHT22;41612;51.994;5.880;2023-04-19T23:17:45;10.60;65.30
55711;DHT22;41612;51.994;5.880;2023-04-19T23:20:11;10.50;65.40
55711;DHT22;41612;51.994;5.880;2023-04-19T23:22:40;10.60;65.60
55711;DHT22;41612;51.994;5.880;2023-04-19T23:25:06;10.50;65.50
55711;DHT22;41612;51.994;5.880;2023-04-19T23:27:32;10.50;65.20
55711;DHT22;41612;51.994;5.880;2023-04-19T23:29:58;10.40;65.80
55711;DHT22;41612;51.994;5.880;2023-04-19T23:32:24;10.40;65.90
55711;DHT22;41612;51.994;5.880;2023-04-19T23:34:50;10.30;65.90
55711;DHT22;41612;51.994;5.880;2023-04-19T23:37:16;10.30;65.70
55711;DHT22;41612;51.994;5.880;2023-04-19T23:39:42;10.30;66.00
55711;DHT22;41612;51.994;5.880;2023-04-19T23:42:08;10.20;66.00
55711;DHT22;41612;51.994;5.880;2023-04-19T23:44:33;10.20;66.20
55711;DHT22;41612;51.994;5.880;2023-04-19T23:46:59;10.20;66.10
55711;DHT22;41612;51.994;5.880;2023-04-19T23:49:27;10.20;66.00
55711;DHT22;41612;51.994;5.880;2023-04-19T23:51:54;10.10;66.30
55711;DHT22;41612;51.994;5.880;2023-04-19T23:54:19;10.10;66.40
55711;DHT22;41612;51.994;5.880;2023-04-19T23:56:47;10.10;66.30
55711;DHT22;41612;51.994;5.880;2023-04-19T23:59:14;10.00;66.20
